sensor_id;sensor_type;location;lat;lon;timestamp;P1;durP1;ratioP1;P2;durP2;ratioP2
21018;SDS011;10667;51.056;3.732;2023-09-08T00:01:51;14.10;;;12.27;;
21018;SDS011;10667;51.056;3.732;2023-09-08T00:04:17;14.68;;;11.43;;
21018;SDS011;10667;51.056;3.732;2023-09-08T00:06:44;14.07;;;11.43;;
21018;SDS011;10667;51.056;3.732;2023-09-08T00:09:11;14.65;;;10.77;;
21018;SDS011;10667;51.056;3.732;2023-09-08T00:11:36;13.30;;;11.73;;
21018;SDS011;10667;51.056;3.732;2023-09-08T00:14:02;15.30;;;12.40;;
21018;SDS011;10667;51.056;3.732;2023-09-08T00:16:28;12.70;;;10.55;;
21018;SDS011;10667;51.056;3.732;2023-09-08T00:18:55;12.40;;;11.10;;
21018;SDS011;10667;51.056;3.732;2023-09-08T00:21:22;15.15;;;11.40;;
21018;SDS011;10667;51.056;3.732;2023-09-08T00:23:47;12.45;;;11.07;;
21018;SDS011;10667;51.056;3.732;2023-09-08T00:26:13;12.77;;;11.05;;
21018;SDS011;10667;51.056;3.732;2023-09-08T00:28:39;12.43;;;10.65;;
21018;SDS011;10667;51.056;3.732;2023-09-08T00:31:04;13.50;;;11.90;;
21018;SDS011;10667;51.056;3.732;2023-09-08T00:33:30;12.20;;;10.88;;
21018;SDS011;10667;51.056;3.732;2023-09-08T00:35:55;13.48;;;11.45;;
21018;SDS011;10667;51.056;3.732;2023-09-08T00:38:22;14.30;;;11.25;;
21018;SDS011;10667;51.056;3.732;2023-09-08T00:40:48;15.85;;;11.90;;
21018;SDS011;10667;51.056;3.732;2023-09-08T00:43:14;12.40;;;11.10;;
21018;SDS011;10667;51.056;3.732;2023-09-08T00:45:40;15.63;;;11.90;;
21018;SDS011;10667;51.056;3.732;2023-09-08T00:48:07;13.70;;;11.35;;
21018;SDS011;10667;51.056;3.732;2023-09-08T00:50:34;14.38;;;12.20;;
21018;SDS011;10667;51.056;3.732;2023-09-08T00:53:01;13.52;;;11.15;;
21018;SDS011;10667;51.056;3.732;2023-09-08T00:55:31;19.92;;;11.43;;
21018;SDS011;10667;51.056;3.732;2023-09-08T00:57:57;14.18;;;11.40;;
21018;SDS011;10667;51.056;3.732;2023-09-08T01:00:24;19.08;;;11.15;;
21018;SDS011;10667;51.056;3.732;2023-09-08T01:02:50;12.98;;;10.48;;
21018;SDS011;10667;51.056;3.732;2023-09-08T01:05:15;15.13;;;11.98;;
21018;SDS011;10667;51.056;3.732;2023-09-08T01:07:41;13.50;;;10.70;;
21018;SDS011;10667;51.056;3.732;2023-09-08T01:10:09;13.95;;;11.40;;
21018;SDS011;10667;51.056;3.732;2023-09-08T01:12:35;12.88;;;10.85;;
21018;SDS011;10667;51.056;3.732;2023-09-08T01:15:01;13.23;;;11.07;;
21018;SDS011;10667;51.056;3.732;2023-09-08T01:17:27;14.27;;;10.40;;
21018;SDS011;10667;51.056;3.732;2023-09-08T01:19:56;12.63;;;10.65;;
21018;SDS011;10667;51.056;3.732;2023-09-08T01:25:26;12.75;;;11.18;;
21018;SDS011;10667;51.056;3.732;2023-09-08T01:27:54;12.60;;;10.70;;
21018;SDS011;10667;51.056;3.732;2023-09-08T01:30:23;15.95;;;11.02;;
21018;SDS011;10667;51.056;3.732;2023-09-08T01:32:50;13.95;;;11.68;;
21018;SDS011;10667;51.056;3.732;2023-09-08T01:35:16;15.48;;;11.43;;
21018;SDS011;10667;51.056;3.732;2023-09-08T01:37:46;13.30;;;10.98;;
21018;SDS011;10667;51.056;3.732;2023-09-08T01:40:13;14.18;;;10.82;;
21018;SDS011;10667;51.056;3.732;2023-09-08T01:42:39;16.20;;;10.43;;
21018;SDS011;10667;51.056;3.732;2023-09-08T01:45:05;13.13;;;11.38;;
21018;SDS011;10667;51.056;3.732;2023-09-08T01:47:32;14.07;;;9.93;;
21018;SDS011;10667;51.056;3.732;2023-09-08T01:49:58;12.43;;;9.90;;
21018;SDS011;10667;51.056;3.732;2023-09-08T01:52:24;18.50;;;10.35;;
21018;SDS011;10667;51.056;3.732;2023-09-08T01:54:50;11.57;;;10.02;;
21018;SDS011;10667;51.056;3.732;2023-09-08T01:57:16;11.10;;;8.98;;
21018;SDS011;10667;51.056;3.732;2023-09-08T01:59:42;13.27;;;9.80;;
21018;SDS011;10667;51.056;3.732;2023-09-08T02:02:09;12.05;;;9.45;;
21018;SDS011;10667;51.056;3.732;2023-09-08T02:04:35;12.32;;;9.27;;
21018;SDS011;10667;51.056;3.732;2023-09-08T02:07:01;14.32;;;9.43;;
21018;SDS011;10667;51.056;3.732;2023-09-08T02:09:35;10.48;;;9.23;;
21018;SDS011;10667;51.056;3.732;2023-09-08T02:12:03;13.32;;;9.32;;
21018;SDS011;10667;51.056;3.732;2023-09-08T02:14:29;11.23;;;9.05;;
21018;SDS011;10667;51.056;3.732;2023-09-08T02:16:55;10.63;;;9.52;;
21018;SDS011;10667;51.056;3.732;2023-09-08T02:19:21;10.23;;;8.38;;
21018;SDS011;10667;51.056;3.732;2023-09-08T02:21:47;11.10;;;8.75;;
21018;SDS011;10667;51.056;3.732;2023-09-08T02:24:13;13.18;;;9.55;;
21018;SDS011;10667;51.056;3.732;2023-09-08T02:26:39;12.20;;;8.48;;
21018;SDS011;10667;51.056;3.732;2023-09-08T02:29:05;10.63;;;8.60;;
21018;SDS011;10667;51.056;3.732;2023-09-08T02:31:31;8.65;;;7.72;;
21018;SDS011;10667;51.056;3.732;2023-09-08T02:33:56;13.25;;;9.02;;
21018;SDS011;10667;51.056;3.732;2023-09-08T02:36:22;10.10;;;8.27;;
21018;SDS011;10667;51.056;3.732;2023-09-08T02:38:51;10.82;;;8.00;;
21018;SDS011;10667;51.056;3.732;2023-09-08T02:41:17;11.90;;;8.60;;
21018;SDS011;10667;51.056;3.732;2023-09-08T02:43:43;10.57;;;8.00;;
21018;SDS011;10667;51.056;3.732;2023-09-08T02:46:09;11.00;;;8.60;;
21018;SDS011;10667;51.056;3.732;2023-09-08T02:48:35;12.73;;;8.32;;
21018;SDS011;10667;51.056;3.732;2023-09-08T02:51:01;10.30;;;9.30;;
21018;SDS011;10667;51.056;3.732;2023-09-08T02:53:26;9.00;;;8.07;;
21018;SDS011;10667;51.056;3.732;2023-09-08T02:55:57;10.15;;;8.32;;
21018;SDS011;10667;51.056;3.732;2023-09-08T02:58:23;13.35;;;9.27;;
21018;SDS011;10667;51.056;3.732;2023-09-08T03:00:49;10.35;;;9.00;;
21018;SDS011;10667;51.056;3.732;2023-09-08T03:03:16;12.05;;;9.23;;
21018;SDS011;10667;51.056;3.732;2023-09-08T03:05:43;9.80;;;8.02;;
21018;SDS011;10667;51.056;3.732;2023-09-08T03:08:08;13.13;;;9.75;;
21018;SDS011;10667;51.056;3.732;2023-09-08T03:10:34;14.20;;;9.98;;
21018;SDS011;10667;51.056;3.732;2023-09-08T03:13:00;9.75;;;8.43;;
21018;SDS011;10667;51.056;3.732;2023-09-08T03:15:26;10.88;;;9.10;;
21018;SDS011;10667;51.056;3.732;2023-09-08T03:17:53;9.27;;;8.20;;
21018;SDS011;10667;51.056;3.732;2023-09-08T03:20:20;11.25;;;8.23;;
21018;SDS011;10667;51.056;3.732;2023-09-08T03:22:46;9.10;;;8.20;;
21018;SDS011;10667;51.056;3.732;2023-09-08T03:25:13;9.52;;;8.52;;
21018;SDS011;10667;51.056;3.732;2023-09-08T03:27:39;12.35;;;9.07;;
21018;SDS011;10667;51.056;3.732;2023-09-08T03:30:05;9.85;;;8.40;;
21018;SDS011;10667;51.056;3.732;2023-09-08T03:32:31;10.18;;;8.68;;
21018;SDS011;10667;51.056;3.732;2023-09-08T03:34:57;11.23;;;8.80;;
21018;SDS011;10667;51.056;3.732;2023-09-08T03:37:22;9.90;;;8.90;;
21018;SDS011;10667;51.056;3.732;2023-09-08T03:39:48;9.45;;;8.43;;
21018;SDS011;10667;51.056;3.732;2023-09-08T03:42:14;9.45;;;8.40;;
21018;SDS011;10667;51.056;3.732;2023-09-08T03:44:40;10.57;;;8.80;;
21018;SDS011;10667;51.056;3.732;2023-09-08T03:47:05;12.25;;;8.27;;
21018;SDS011;10667;51.056;3.732;2023-09-08T03:49:31;15.75;;;9.55;;
21018;SDS011;10667;51.056;3.732;2023-09-08T03:51:58;11.05;;;9.07;;
21018;SDS011;10667;51.056;3.732;2023-09-08T03:54:23;10.52;;;8.38;;
21018;SDS011;10667;51.056;3.732;2023-09-08T03:56:49;11.13;;;8.18;;
21018;SDS011;10667;51.056;3.732;2023-09-08T03:59:15;9.43;;;7.82;;
21018;SDS011;10667;51.056;3.732;2023-09-08T04:01:40;8.95;;;7.78;;
21018;SDS011;10667;51.056;3.732;2023-09-08T04:04:06;9.38;;;8.48;;
21018;SDS011;10667;51.056;3.732;2023-09-08T04:06:32;9.57;;;8.05;;
21018;SDS011;10667;51.056;3.732;2023-09-08T04:08:57;12.38;;;7.80;;
21018;SDS011;10667;51.056;3.732;2023-09-08T04:11:23;7.10;;;6.40;;
21018;SDS011;10667;51.056;3.732;2023-09-08T04:13:49;10.40;;;7.60;;
21018;SDS011;10667;51.056;3.732;2023-09-08T04:16:14;10.10;;;8.25;;
21018;SDS011;10667;51.056;3.732;2023-09-08T04:18:40;8.48;;;6.95;;
21018;SDS011;10667;51.056;3.732;2023-09-08T04:21:06;11.18;;;8.52;;
21018;SDS011;10667;51.056;3.732;2023-09-08T04:23:32;9.50;;;8.10;;
21018;SDS011;10667;51.056;3.732;2023-09-08T04:25:58;9.60;;;8.50;;
21018;SDS011;10667;51.056;3.732;2023-09-08T04:28:24;9.40;;;7.65;;
21018;SDS011;10667;51.056;3.732;2023-09-08T04:30:50;11.25;;;7.35;;
21018;SDS011;10667;51.056;3.732;2023-09-08T04:33:15;9.40;;;7.60;;
21018;SDS011;10667;51.056;3.732;2023-09-08T04:35:41;9.45;;;7.78;;
21018;SDS011;10667;51.056;3.732;2023-09-08T04:38:06;11.38;;;7.50;;
21018;SDS011;10667;51.056;3.732;2023-09-08T04:40:32;9.40;;;7.30;;
21018;SDS011;10667;51.056;3.732;2023-09-08T04:42:59;10.30;;;7.50;;
21018;SDS011;10667;51.056;3.732;2023-09-08T04:45:25;8.43;;;7.55;;
21018;SDS011;10667;51.056;3.732;2023-09-08T04:47:50;8.60;;;7.28;;
21018;SDS011;10667;51.056;3.732;2023-09-08T04:50:16;10.52;;;7.55;;
21018;SDS011;10667;51.056;3.732;2023-09-08T04:52:42;10.02;;;7.80;;
21018;SDS011;10667;51.056;3.732;2023-09-08T04:55:07;9.35;;;6.90;;
21018;SDS011;10667;51.056;3.732;2023-09-08T04:57:33;7.88;;;6.82;;
21018;SDS011;10667;51.056;3.732;2023-09-08T04:59:59;9.00;;;7.00;;
21018;SDS011;10667;51.056;3.732;2023-09-08T05:02:24;9.18;;;8.05;;
21018;SDS011;10667;51.056;3.732;2023-09-08T05:04:50;9.02;;;7.63;;
21018;SDS011;10667;51.056;3.732;2023-09-08T05:07:16;9.52;;;7.72;;
21018;SDS011;10667;51.056;3.732;2023-09-08T05:09:43;9.05;;;8.15;;
21018;SDS011;10667;51.056;3.732;2023-09-08T05:12:09;11.98;;;8.18;;
21018;SDS011;10667;51.056;3.732;2023-09-08T05:14:35;9.65;;;8.10;;
21018;SDS011;10667;51.056;3.732;2023-09-08T05:17:00;13.95;;;8.93;;
21018;SDS011;10667;51.056;3.732;2023-09-08T05:19:26;14.27;;;9.25;;
21018;SDS011;10667;51.056;3.732;2023-09-08T05:21:53;13.10;;;8.32;;
21018;SDS011;10667;51.056;3.732;2023-09-08T05:24:19;14.48;;;9.30;;
21018;SDS011;10667;51.056;3.732;2023-09-08T05:26:46;11.43;;;8.45;;
21018;SDS011;10667;51.056;3.732;2023-09-08T05:29:11;14.23;;;8.80;;
21018;SDS011;10667;51.056;3.732;2023-09-08T05:31:37;10.85;;;8.82;;
21018;SDS011;10667;51.056;3.732;2023-09-08T05:34:03;11.18;;;8.60;;
21018;SDS011;10667;51.056;3.732;2023-09-08T05:36:29;12.52;;;8.88;;
21018;SDS011;10667;51.056;3.732;2023-09-08T05:38:56;12.80;;;8.80;;
21018;SDS011;10667;51.056;3.732;2023-09-08T05:41:21;11.60;;;8.90;;
21018;SDS011;10667;51.056;3.732;2023-09-08T05:43:47;12.95;;;9.25;;
21018;SDS011;10667;51.056;3.732;2023-09-08T05:46:13;12.05;;;8.43;;
21018;SDS011;10667;51.056;3.732;2023-09-08T05:48:39;10.98;;;8.52;;
21018;SDS011;10667;51.056;3.732;2023-09-08T05:51:04;11.05;;;8.65;;
21018;SDS011;10667;51.056;3.732;2023-09-08T05:53:31;12.38;;;8.13;;
21018;SDS011;10667;51.056;3.732;2023-09-08T05:55:57;12.52;;;8.65;;
21018;SDS011;10667;51.056;3.732;2023-09-08T05:58:23;12.70;;;8.90;;
21018;SDS011;10667;51.056;3.732;2023-09-08T06:00:52;10.35;;;8.43;;
21018;SDS011;10667;51.056;3.732;2023-09-08T06:03:20;12.50;;;10.57;;
21018;SDS011;10667;51.056;3.732;2023-09-08T06:05:46;11.75;;;9.25;;
21018;SDS011;10667;51.056;3.732;2023-09-08T06:08:11;13.45;;;8.70;;
21018;SDS011;10667;51.056;3.732;2023-09-08T06:10:38;10.85;;;8.95;;
21018;SDS011;10667;51.056;3.732;2023-09-08T06:13:04;14.55;;;8.52;;
21018;SDS011;10667;51.056;3.732;2023-09-08T06:15:29;10.15;;;8.73;;
21018;SDS011;10667;51.056;3.732;2023-09-08T06:17:55;14.88;;;9.63;;
21018;SDS011;10667;51.056;3.732;2023-09-08T06:20:21;13.32;;;9.90;;
21018;SDS011;10667;51.056;3.732;2023-09-08T06:22:47;11.82;;;9.80;;
21018;SDS011;10667;51.056;3.732;2023-09-08T06:25:12;11.60;;;9.35;;
21018;SDS011;10667;51.056;3.732;2023-09-08T06:27:38;10.80;;;8.70;;
21018;SDS011;10667;51.056;3.732;2023-09-08T06:30:04;11.70;;;8.80;;
21018;SDS011;10667;51.056;3.732;2023-09-08T06:32:31;12.85;;;8.98;;
21018;SDS011;10667;51.056;3.732;2023-09-08T06:34:56;14.32;;;10.73;;
21018;SDS011;10667;51.056;3.732;2023-09-08T06:37:22;9.80;;;8.55;;
21018;SDS011;10667;51.056;3.732;2023-09-08T06:39:48;10.73;;;8.88;;
21018;SDS011;10667;51.056;3.732;2023-09-08T06:42:13;16.38;;;10.35;;
21018;SDS011;10667;51.056;3.732;2023-09-08T06:44:39;12.75;;;8.55;;
21018;SDS011;10667;51.056;3.732;2023-09-08T06:47:04;11.93;;;9.43;;
21018;SDS011;10667;51.056;3.732;2023-09-08T06:49:32;9.38;;;8.32;;
21018;SDS011;10667;51.056;3.732;2023-09-08T06:51:58;12.75;;;8.85;;
21018;SDS011;10667;51.056;3.732;2023-09-08T06:54:23;11.93;;;9.85;;
21018;SDS011;10667;51.056;3.732;2023-09-08T06:56:49;14.95;;;10.10;;
21018;SDS011;10667;51.056;3.732;2023-09-08T06:59:14;13.70;;;10.25;;
21018;SDS011;10667;51.056;3.732;2023-09-08T07:01:40;11.95;;;9.40;;
21018;SDS011;10667;51.056;3.732;2023-09-08T07:04:06;14.60;;;9.82;;
21018;SDS011;10667;51.056;3.732;2023-09-08T07:06:31;13.60;;;10.50;;
21018;SDS011;10667;51.056;3.732;2023-09-08T07:08:57;14.48;;;9.90;;
21018;SDS011;10667;51.056;3.732;2023-09-08T07:11:23;14.57;;;10.18;;
21018;SDS011;10667;51.056;3.732;2023-09-08T07:13:48;11.77;;;10.23;;
21018;SDS011;10667;51.056;3.732;2023-09-08T07:16:14;12.00;;;9.75;;
21018;SDS011;10667;51.056;3.732;2023-09-08T07:18:40;12.50;;;10.35;;
21018;SDS011;10667;51.056;3.732;2023-09-08T07:21:05;14.85;;;10.10;;
21018;SDS011;10667;51.056;3.732;2023-09-08T07:23:31;12.18;;;9.38;;
21018;SDS011;10667;51.056;3.732;2023-09-08T07:25:57;13.52;;;9.13;;
21018;SDS011;10667;51.056;3.732;2023-09-08T07:28:22;10.82;;;8.85;;
21018;SDS011;10667;51.056;3.732;2023-09-08T07:30:48;12.27;;;9.27;;
21018;SDS011;10667;51.056;3.732;2023-09-08T07:33:13;13.25;;;9.00;;
21018;SDS011;10667;51.056;3.732;2023-09-08T07:35:39;14.52;;;8.65;;
21018;SDS011;10667;51.056;3.732;2023-09-08T07:38:05;10.60;;;8.43;;
21018;SDS011;10667;51.056;3.732;2023-09-08T07:40:35;11.70;;;7.70;;
21018;SDS011;10667;51.056;3.732;2023-09-08T07:43:00;9.75;;;7.88;;
21018;SDS011;10667;51.056;3.732;2023-09-08T07:45:27;9.20;;;8.00;;
21018;SDS011;10667;51.056;3.732;2023-09-08T07:47:53;10.02;;;7.28;;
21018;SDS011;10667;51.056;3.732;2023-09-08T07:50:23;10.73;;;7.35;;
21018;SDS011;10667;51.056;3.732;2023-09-08T07:52:50;7.63;;;6.85;;
21018;SDS011;10667;51.056;3.732;2023-09-08T07:55:17;11.32;;;8.30;;
21018;SDS011;10667;51.056;3.732;2023-09-08T07:57:44;11.10;;;7.20;;
21018;SDS011;10667;51.056;3.732;2023-09-08T08:00:13;12.85;;;7.60;;
21018;SDS011;10667;51.056;3.732;2023-09-08T08:02:41;10.43;;;7.65;;
21018;SDS011;10667;51.056;3.732;2023-09-08T08:05:09;9.35;;;7.57;;
21018;SDS011;10667;51.056;3.732;2023-09-08T08:07:35;12.52;;;8.07;;
21018;SDS011;10667;51.056;3.732;2023-09-08T08:10:00;12.27;;;8.57;;
21018;SDS011;10667;51.056;3.732;2023-09-08T08:12:26;8.63;;;7.63;;
21018;SDS011;10667;51.056;3.732;2023-09-08T08:14:52;9.25;;;8.00;;
21018;SDS011;10667;51.056;3.732;2023-09-08T08:17:18;14.10;;;7.50;;
21018;SDS011;10667;51.056;3.732;2023-09-08T08:19:44;9.85;;;7.35;;
21018;SDS011;10667;51.056;3.732;2023-09-08T08:22:10;13.10;;;9.48;;
21018;SDS011;10667;51.056;3.732;2023-09-08T08:24:36;17.30;;;8.98;;
21018;SDS011;10667;51.056;3.732;2023-09-08T08:27:02;13.13;;;9.15;;
21018;SDS011;10667;51.056;3.732;2023-09-08T08:29:28;14.60;;;9.20;;
21018;SDS011;10667;51.056;3.732;2023-09-08T08:31:54;12.20;;;7.95;;
21018;SDS011;10667;51.056;3.732;2023-09-08T08:34:20;9.85;;;7.30;;
21018;SDS011;10667;51.056;3.732;2023-09-08T08:36:46;15.02;;;7.70;;
21018;SDS011;10667;51.056;3.732;2023-09-08T08:39:11;11.68;;;7.13;;
21018;SDS011;10667;51.056;3.732;2023-09-08T08:41:37;11.25;;;7.85;;
21018;SDS011;10667;51.056;3.732;2023-09-08T08:44:07;9.55;;;7.63;;
21018;SDS011;10667;51.056;3.732;2023-09-08T08:46:33;10.15;;;7.30;;
21018;SDS011;10667;51.056;3.732;2023-09-08T08:49:04;9.18;;;7.38;;
21018;SDS011;10667;51.056;3.732;2023-09-08T08:51:33;8.48;;;7.10;;
21018;SDS011;10667;51.056;3.732;2023-09-08T08:54:00;11.48;;;7.00;;
21018;SDS011;10667;51.056;3.732;2023-09-08T08:56:29;9.57;;;6.95;;
21018;SDS011;10667;51.056;3.732;2023-09-08T08:59:01;16.10;;;8.10;;
21018;SDS011;10667;51.056;3.732;2023-09-08T09:01:27;9.75;;;7.60;;
21018;SDS011;10667;51.056;3.732;2023-09-08T09:03:54;8.38;;;6.47;;
21018;SDS011;10667;51.056;3.732;2023-09-08T09:06:21;10.40;;;7.00;;
21018;SDS011;10667;51.056;3.732;2023-09-08T09:08:47;7.57;;;6.75;;
21018;SDS011;10667;51.056;3.732;2023-09-08T09:11:13;8.80;;;7.07;;
21018;SDS011;10667;51.056;3.732;2023-09-08T09:13:38;10.02;;;7.40;;
21018;SDS011;10667;51.056;3.732;2023-09-08T09:16:04;8.88;;;6.82;;
21018;SDS011;10667;51.056;3.732;2023-09-08T09:18:33;13.00;;;6.82;;
21018;SDS011;10667;51.056;3.732;2023-09-08T09:20:59;14.50;;;7.35;;
21018;SDS011;10667;51.056;3.732;2023-09-08T09:23:29;11.18;;;7.03;;
21018;SDS011;10667;51.056;3.732;2023-09-08T09:25:57;10.50;;;6.65;;
21018;SDS011;10667;51.056;3.732;2023-09-08T09:28:24;8.68;;;6.13;;
21018;SDS011;10667;51.056;3.732;2023-09-08T09:30:51;11.02;;;6.43;;
21018;SDS011;10667;51.056;3.732;2023-09-08T09:33:19;9.60;;;6.57;;
21018;SDS011;10667;51.056;3.732;2023-09-08T09:35:52;8.23;;;6.00;;
21018;SDS011;10667;51.056;3.732;2023-09-08T09:38:19;11.30;;;7.25;;
21018;SDS011;10667;51.056;3.732;2023-09-08T09:40:46;9.23;;;7.03;;
21018;SDS011;10667;51.056;3.732;2023-09-08T09:43:13;8.55;;;6.40;;
21018;SDS011;10667;51.056;3.732;2023-09-08T09:45:40;10.38;;;6.38;;
21018;SDS011;10667;51.056;3.732;2023-09-08T09:48:08;10.98;;;6.15;;
21018;SDS011;10667;51.056;3.732;2023-09-08T09:50:35;10.27;;;6.35;;
21018;SDS011;10667;51.056;3.732;2023-09-08T09:53:08;8.10;;;5.60;;
21018;SDS011;10667;51.056;3.732;2023-09-08T09:55:36;9.27;;;6.57;;
21018;SDS011;10667;51.056;3.732;2023-09-08T09:58:06;8.60;;;6.13;;
21018;SDS011;10667;51.056;3.732;2023-09-08T10:00:33;7.22;;;6.20;;
21018;SDS011;10667;51.056;3.732;2023-09-08T10:03:00;8.68;;;6.55;;
21018;SDS011;10667;51.056;3.732;2023-09-08T10:05:27;9.85;;;5.88;;
21018;SDS011;10667;51.056;3.732;2023-09-08T10:07:53;9.75;;;6.50;;
21018;SDS011;10667;51.056;3.732;2023-09-08T10:10:19;8.82;;;6.07;;
21018;SDS011;10667;51.056;3.732;2023-09-08T10:12:52;7.88;;;6.30;;
21018;SDS011;10667;51.056;3.732;2023-09-08T10:15:20;11.60;;;5.72;;
21018;SDS011;10667;51.056;3.732;2023-09-08T10:17:52;8.18;;;5.38;;
21018;SDS011;10667;51.056;3.732;2023-09-08T10:20:20;6.78;;;5.63;;
21018;SDS011;10667;51.056;3.732;2023-09-08T10:22:52;6.13;;;5.53;;
21018;SDS011;10667;51.056;3.732;2023-09-08T10:25:29;7.65;;;6.03;;
21018;SDS011;10667;51.056;3.732;2023-09-08T10:28:00;7.68;;;5.15;;
21018;SDS011;10667;51.056;3.732;2023-09-08T10:30:27;10.10;;;5.72;;
21018;SDS011;10667;51.056;3.732;2023-09-08T10:32:53;12.00;;;5.75;;
21018;SDS011;10667;51.056;3.732;2023-09-08T10:35:19;8.43;;;5.25;;
21018;SDS011;10667;51.056;3.732;2023-09-08T10:37:45;9.27;;;5.75;;
21018;SDS011;10667;51.056;3.732;2023-09-08T10:40:21;12.02;;;5.50;;
21018;SDS011;10667;51.056;3.732;2023-09-08T10:43:10;6.05;;;5.30;;
21018;SDS011;10667;51.056;3.732;2023-09-08T10:45:36;9.55;;;5.60;;
21018;SDS011;10667;51.056;3.732;2023-09-08T10:48:04;10.05;;;5.80;;
21018;SDS011;10667;51.056;3.732;2023-09-08T10:50:35;10.82;;;5.95;;
21018;SDS011;10667;51.056;3.732;2023-09-08T10:53:16;9.63;;;5.95;;
21018;SDS011;10667;51.056;3.732;2023-09-08T10:55:43;8.18;;;5.85;;
21018;SDS011;10667;51.056;3.732;2023-09-08T10:58:17;13.10;;;7.00;;
21018;SDS011;10667;51.056;3.732;2023-09-08T11:00:45;8.65;;;6.50;;
21018;SDS011;10667;51.056;3.732;2023-09-08T11:03:13;17.33;;;6.28;;
21018;SDS011;10667;51.056;3.732;2023-09-08T11:05:40;14.05;;;6.63;;
21018;SDS011;10667;51.056;3.732;2023-09-08T11:08:07;11.38;;;6.95;;
21018;SDS011;10667;51.056;3.732;2023-09-08T11:10:32;12.80;;;6.32;;
21018;SDS011;10667;51.056;3.732;2023-09-08T11:12:59;10.88;;;6.50;;
21018;SDS011;10667;51.056;3.732;2023-09-08T11:15:28;15.30;;;6.57;;
21018;SDS011;10667;51.056;3.732;2023-09-08T11:17:53;9.18;;;6.47;;
21018;SDS011;10667;51.056;3.732;2023-09-08T11:20:28;11.07;;;6.20;;
21018;SDS011;10667;51.056;3.732;2023-09-08T11:22:54;10.40;;;5.97;;
21018;SDS011;10667;51.056;3.732;2023-09-08T11:25:20;8.00;;;5.90;;
21018;SDS011;10667;51.056;3.732;2023-09-08T11:27:45;11.07;;;5.85;;
21018;SDS011;10667;51.056;3.732;2023-09-08T11:30:12;8.05;;;4.65;;
21018;SDS011;10667;51.056;3.732;2023-09-08T11:32:39;9.38;;;5.53;;
21018;SDS011;10667;51.056;3.732;2023-09-08T11:35:05;8.18;;;4.70;;
21018;SDS011;10667;51.056;3.732;2023-09-08T11:37:38;7.35;;;5.10;;
21018;SDS011;10667;51.056;3.732;2023-09-08T11:40:06;14.40;;;5.57;;
21018;SDS011;10667;51.056;3.732;2023-09-08T11:42:39;8.27;;;5.50;;
21018;SDS011;10667;51.056;3.732;2023-09-08T11:45:09;10.18;;;4.60;;
21018;SDS011;10667;51.056;3.732;2023-09-08T11:47:37;9.80;;;5.07;;
21018;SDS011;10667;51.056;3.732;2023-09-08T11:50:10;5.55;;;4.78;;
21018;SDS011;10667;51.056;3.732;2023-09-08T11:52:40;8.10;;;5.10;;
21018;SDS011;10667;51.056;3.732;2023-09-08T11:55:15;9.55;;;5.07;;
21018;SDS011;10667;51.056;3.732;2023-09-08T11:57:44;13.63;;;5.30;;
21018;SDS011;10667;51.056;3.732;2023-09-08T12:00:12;11.10;;;5.50;;
21018;SDS011;10667;51.056;3.732;2023-09-08T12:02:42;9.10;;;5.60;;
21018;SDS011;10667;51.056;3.732;2023-09-08T12:05:27;9.80;;;6.20;;
21018;SDS011;10667;51.056;3.732;2023-09-08T12:07:54;15.40;;;5.82;;
21018;SDS011;10667;51.056;3.732;2023-09-08T12:10:22;9.80;;;5.78;;
21018;SDS011;10667;51.056;3.732;2023-09-08T12:12:49;8.65;;;5.18;;
21018;SDS011;10667;51.056;3.732;2023-09-08T12:15:39;9.32;;;5.63;;
21018;SDS011;10667;51.056;3.732;2023-09-08T12:18:06;8.73;;;5.75;;
21018;SDS011;10667;51.056;3.732;2023-09-08T12:20:33;10.48;;;6.32;;
21018;SDS011;10667;51.056;3.732;2023-09-08T12:23:01;11.90;;;6.78;;
21018;SDS011;10667;51.056;3.732;2023-09-08T12:25:28;7.72;;;6.22;;
21018;SDS011;10667;51.056;3.732;2023-09-08T12:27:56;11.13;;;5.95;;
21018;SDS011;10667;51.056;3.732;2023-09-08T12:30:23;12.90;;;7.60;;
21018;SDS011;10667;51.056;3.732;2023-09-08T12:32:57;13.93;;;7.15;;
21018;SDS011;10667;51.056;3.732;2023-09-08T12:35:24;8.25;;;6.07;;
21018;SDS011;10667;51.056;3.732;2023-09-08T12:37:56;10.70;;;6.53;;
21018;SDS011;10667;51.056;3.732;2023-09-08T12:40:28;8.93;;;5.22;;
21018;SDS011;10667;51.056;3.732;2023-09-08T12:42:55;8.43;;;4.65;;
21018;SDS011;10667;51.056;3.732;2023-09-08T12:45:22;10.07;;;5.07;;
21018;SDS011;10667;51.056;3.732;2023-09-08T12:47:51;6.32;;;5.32;;
21018;SDS011;10667;51.056;3.732;2023-09-08T12:50:17;6.63;;;4.70;;
21018;SDS011;10667;51.056;3.732;2023-09-08T12:52:43;9.95;;;4.47;;
21018;SDS011;10667;51.056;3.732;2023-09-08T12:55:09;9.57;;;4.50;;
21018;SDS011;10667;51.056;3.732;2023-09-08T12:57:35;6.97;;;4.18;;
21018;SDS011;10667;51.056;3.732;2023-09-08T13:00:01;6.28;;;3.97;;
21018;SDS011;10667;51.056;3.732;2023-09-08T13:02:30;8.05;;;3.67;;
21018;SDS011;10667;51.056;3.732;2023-09-08T13:04:56;7.10;;;3.83;;
21018;SDS011;10667;51.056;3.732;2023-09-08T13:07:23;5.38;;;4.35;;
21018;SDS011;10667;51.056;3.732;2023-09-08T13:09:48;7.20;;;4.13;;
21018;SDS011;10667;51.056;3.732;2023-09-08T13:12:15;4.65;;;3.65;;
21018;SDS011;10667;51.056;3.732;2023-09-08T13:14:41;9.30;;;4.18;;
21018;SDS011;10667;51.056;3.732;2023-09-08T13:17:08;11.10;;;4.10;;
21018;SDS011;10667;51.056;3.732;2023-09-08T13:19:37;8.00;;;3.80;;
21018;SDS011;10667;51.056;3.732;2023-09-08T13:22:04;11.43;;;4.30;;
21018;SDS011;10667;51.056;3.732;2023-09-08T13:24:29;6.75;;;3.90;;
21018;SDS011;10667;51.056;3.732;2023-09-08T13:26:55;4.68;;;3.67;;
21018;SDS011;10667;51.056;3.732;2023-09-08T13:29:21;9.75;;;4.10;;
21018;SDS011;10667;51.056;3.732;2023-09-08T13:31:46;6.05;;;4.43;;
21018;SDS011;10667;51.056;3.732;2023-09-08T13:34:12;8.32;;;4.25;;
21018;SDS011;10667;51.056;3.732;2023-09-08T13:36:38;7.95;;;4.50;;
21018;SDS011;10667;51.056;3.732;2023-09-08T13:39:04;12.10;;;4.65;;
21018;SDS011;10667;51.056;3.732;2023-09-08T13:44:16;5.65;;;4.03;;
21018;SDS011;10667;51.056;3.732;2023-09-08T13:46:43;6.95;;;4.50;;
21018;SDS011;10667;51.056;3.732;2023-09-08T13:49:09;7.70;;;4.40;;
21018;SDS011;10667;51.056;3.732;2023-09-08T13:51:34;5.68;;;4.28;;
21018;SDS011;10667;51.056;3.732;2023-09-08T13:54:00;8.25;;;4.18;;
21018;SDS011;10667;51.056;3.732;2023-09-08T13:56:26;5.65;;;4.35;;
21018;SDS011;10667;51.056;3.732;2023-09-08T13:58:52;6.70;;;4.80;;
21018;SDS011;10667;51.056;3.732;2023-09-08T14:01:17;7.38;;;5.03;;
21018;SDS011;10667;51.056;3.732;2023-09-08T14:03:43;7.68;;;5.15;;
21018;SDS011;10667;51.056;3.732;2023-09-08T14:06:08;10.73;;;4.63;;
21018;SDS011;10667;51.056;3.732;2023-09-08T14:08:34;12.10;;;4.97;;
21018;SDS011;10667;51.056;3.732;2023-09-08T14:11:00;10.23;;;5.43;;
21018;SDS011;10667;51.056;3.732;2023-09-08T14:13:25;10.60;;;5.22;;
21018;SDS011;10667;51.056;3.732;2023-09-08T14:15:51;6.03;;;4.45;;
21018;SDS011;10667;51.056;3.732;2023-09-08T14:18:17;12.75;;;5.70;;
21018;SDS011;10667;51.056;3.732;2023-09-08T14:20:42;7.82;;;4.72;;
21018;SDS011;10667;51.056;3.732;2023-09-08T14:23:08;8.13;;;5.25;;
21018;SDS011;10667;51.056;3.732;2023-09-08T14:25:34;8.02;;;4.82;;
21018;SDS011;10667;51.056;3.732;2023-09-08T14:28:00;8.05;;;5.60;;
21018;SDS011;10667;51.056;3.732;2023-09-08T14:30:29;12.95;;;5.85;;
21018;SDS011;10667;51.056;3.732;2023-09-08T14:32:55;9.80;;;4.70;;
21018;SDS011;10667;51.056;3.732;2023-09-08T14:35:21;6.50;;;4.82;;
21018;SDS011;10667;51.056;3.732;2023-09-08T14:37:47;8.27;;;4.47;;
21018;SDS011;10667;51.056;3.732;2023-09-08T14:40:15;5.93;;;4.50;;
21018;SDS011;10667;51.056;3.732;2023-09-08T14:42:41;6.38;;;4.57;;